Time;durP1;ratioP1;P1;durP2;ratioP2;P2;SDS_P1;SDS_P2;PMS_P1;PMS_P2;Temp;Humidity;BMP_temperature;BMP_pressure;BME280_temperature;BME280_humidity;BME280_pressure;Samples;Min_cycle;Max_cycle;Signal;HPM_P1;HPM_P2
2023/05/23 00:04:17;;;;;;;19.90;11.57;;;;;;;;;;10335663;28;20050;-73
2023/05/23 00:09:17;;;;;;;26.33;12.27;;;;;;;;;;10335692;28;20038;-73
2023/05/23 00:14:18;;;;;;;16.33;10.93;;;;;;;;;;10335546;28;20264;-73
2023/05/23 00:19:19;;;;;;;13.30;8.50;;;;;;;;;;10318343;28;20026;-72
2023/05/23 00:24:19;;;;;;;14.15;7.53;;;;;;;;;;10335555;28;20325;-74
2023/05/23 00:29:20;;;;;;;11.98;7.05;;;;;;;;;;10334812;28;20038;-72
2023/05/23 00:34:20;;;;;;;13.50;7.47;;;;;;;;;;10317637;28;20053;-73
2023/05/23 00:39:20;;;;;;;12.68;7.90;;;;;;;;;;10317701;28;20105;-74
2023/05/23 00:44:20;;;;;;;9.82;6.75;;;;;;;;;;10334285;28;20410;-74
2023/05/23 00:49:21;;;;;;;14.63;7.00;;;;;;;;;;10333513;28;20050;-73
2023/05/23 00:54:29;;;;;;;12.82;6.78;;;;;;;;;;10334190;28;20034;-73
2023/05/23 00:59:30;;;;;;;14.02;7.93;;;;;;;;;;10334332;28;20038;-73
2023/05/23 01:04:33;;;;;;;12.98;7.55;;;;;;;;;;10334319;28;20255;-73
2023/05/23 01:09:33;;;;;;;12.02;7.60;;;;;;;;;;10335986;28;20590;-73
2023/05/23 01:14:36;;;;;;;9.85;6.50;;;;;;;;;;10334259;28;20042;-73
2023/05/23 01:19:40;;;;;;;11.18;7.22;;;;;;;;;;10334114;28;20066;-74
2023/05/23 01:25:06;;;;;;;12.73;7.15;;;;;;;;;;10333455;28;20058;-73
2023/05/23 01:30:08;;;;;;;15.68;8.45;;;;;;;;;;10333722;28;20240;-73
2023/05/23 01:35:09;;;;;;;17.88;8.18;;;;;;;;;;10333255;28;20061;-73
2023/05/23 01:40:10;;;;;;;10.55;7.55;;;;;;;;;;10339626;28;20041;-73
2023/05/23 01:45:10;;;;;;;19.35;8.40;;;;;;;;;;10342125;28;20034;-73
2023/05/23 01:50:11;;;;;;;12.05;7.15;;;;;;;;;;10341899;28;20372;-73
2023/05/23 01:55:13;;;;;;;14.03;7.70;;;;;;;;;;10323485;28;20030;-73
2023/05/23 02:00:14;;;;;;;15.95;7.55;;;;;;;;;;10340697;28;20296;-72
2023/05/23 02:05:14;;;;;;;19.83;8.77;;;;;;;;;;10313449;28;20018;-72
2023/05/23 02:10:14;;;;;;;13.10;8.23;;;;;;;;;;10338892;28;20026;-72
2023/05/23 02:15:16;;;;;;;13.33;8.10;;;;;;;;;;10340485;28;20031;-73
2023/05/23 02:20:17;;;;;;;15.27;8.85;;;;;;;;;;10340370;28;20097;-73
2023/05/23 02:25:18;;;;;;;8.82;6.15;;;;;;;;;;10340159;28;20038;-73
2023/05/23 02:30:18;;;;;;;11.02;6.43;;;;;;;;;;10339993;28;20052;-73
2023/05/23 02:35:19;;;;;;;7.90;5.90;;;;;;;;;;10339957;28;20566;-73
2023/05/23 02:40:19;;;;;;;9.80;6.45;;;;;;;;;;10338995;28;20106;-73
2023/05/23 02:45:19;;;;;;;17.83;7.75;;;;;;;;;;10339532;28;20027;-73
2023/05/23 02:50:20;;;;;;;10.90;6.05;;;;;;;;;;10338658;28;20061;-73
2023/05/23 02:55:20;;;;;;;14.85;5.80;;;;;;;;;;10338580;28;20572;-73
2023/05/23 03:00:20;;;;;;;10.03;5.53;;;;;;;;;;10338669;28;20030;-73
2023/05/23 03:05:21;;;;;;;7.70;4.30;;;;;;;;;;10337770;28;20026;-74
2023/05/23 03:10:21;;;;;;;5.35;4.72;;;;;;;;;;10337855;28;20383;-73
2023/05/23 03:15:21;;;;;;;7.82;5.15;;;;;;;;;;10338462;28;20038;-73
2023/05/23 03:20:21;;;;;;;4.18;3.55;;;;;;;;;;10337973;28;20054;-73
2023/05/23 03:25:22;;;;;;;8.13;4.40;;;;;;;;;;10337884;28;20375;-73
2023/05/23 03:30:22;;;;;;;5.22;3.97;;;;;;;;;;10337010;28;20026;-73
2023/05/23 03:35:22;;;;;;;5.20;4.18;;;;;;;;;;10337119;28;20200;-74
2023/05/23 03:40:22;;;;;;;5.35;4.35;;;;;;;;;;10337007;28;20104;-73
2023/05/23 03:45:23;;;;;;;8.30;6.03;;;;;;;;;;10336444;28;20048;-73
2023/05/23 03:50:24;;;;;;;7.18;3.67;;;;;;;;;;10337282;28;20339;-74
2023/05/23 03:55:24;;;;;;;9.35;5.40;;;;;;;;;;10336202;28;20383;-73
2023/05/23 04:00:25;;;;;;;4.70;3.83;;;;;;;;;;10335964;28;20100;-74
2023/05/23 04:05:25;;;;;;;7.43;4.68;;;;;;;;;;10335913;28;20022;-72
2023/05/23 04:10:26;;;;;;;8.35;5.57;;;;;;;;;;10335409;28;20038;-74
2023/05/23 04:15:26;;;;;;;6.77;4.97;;;;;;;;;;10335030;28;20267;-74
2023/05/23 04:20:27;;;;;;;6.40;4.03;;;;;;;;;;10334338;28;20045;-72
2023/05/23 04:25:27;;;;;;;4.78;4.07;;;;;;;;;;10333172;28;20034;-73
2023/05/23 04:30:29;;;;;;;8.38;4.88;;;;;;;;;;10331361;28;20034;-73
2023/05/23 04:35:32;;;;;;;4.60;3.78;;;;;;;;;;10332070;28;20022;-73
2023/05/23 04:40:33;;;;;;;4.70;3.75;;;;;;;;;;10333188;28;20034;-73
2023/05/23 04:45:33;;;;;;;14.10;5.10;;;;;;;;;;10331110;28;20427;-72
2023/05/23 04:50:34;;;;;;;7.63;5.07;;;;;;;;;;10331213;28;20042;-73
2023/05/23 04:55:35;;;;;;;12.13;5.28;;;;;;;;;;10333949;28;20064;-74
2023/05/23 05:00:35;;;;;;;9.00;5.97;;;;;;;;;;10333461;28;20040;-73
2023/05/23 05:05:35;;;;;;;19.15;5.97;;;;;;;;;;10332994;28;20027;-72
2023/05/23 05:10:35;;;;;;;11.82;7.15;;;;;;;;;;10329278;28;20085;-72
2023/05/23 05:15:36;;;;;;;12.57;7.38;;;;;;;;;;10327222;28;20034;-72
2023/05/23 05:20:36;;;;;;;9.88;6.90;;;;;;;;;;10332303;28;20243;-72
2023/05/23 05:25:37;;;;;;;14.03;8.13;;;;;;;;;;10368371;28;20026;-73
2023/05/23 05:30:37;;;;;;;18.10;6.95;;;;;;;;;;10333235;28;20464;-73
2023/05/23 05:35:37;;;;;;;15.10;8.27;;;;;;;;;;10332946;28;20042;-73
2023/05/23 05:40:38;;;;;;;24.15;10.68;;;;;;;;;;10333518;28;20285;-73
2023/05/23 05:45:39;;;;;;;27.73;10.40;;;;;;;;;;10314121;28;20037;-71
2023/05/23 05:50:39;;;;;;;20.83;10.48;;;;;;;;;;10330664;28;20037;-72
2023/05/23 05:55:39;;;;;;;22.20;8.82;;;;;;;;;;10331153;28;20102;-73
2023/05/23 06:00:42;;;;;;;22.35;9.02;;;;;;;;;;10330463;28;20566;-72
2023/05/23 06:05:43;;;;;;;20.05;12.30;;;;;;;;;;10331327;28;20308;-73
2023/05/23 06:10:43;;;;;;;33.03;13.47;;;;;;;;;;10330844;28;20030;-75
2023/05/23 06:15:43;;;;;;;25.88;12.75;;;;;;;;;;10331398;28;20038;-75
2023/05/23 06:20:44;;;;;;;22.52;11.60;;;;;;;;;;10336633;28;20029;-75
2023/05/23 06:25:44;;;;;;;32.40;11.60;;;;;;;;;;10374452;28;20311;-74
2023/05/23 06:30:44;;;;;;;26.67;12.13;;;;;;;;;;10378588;28;20215;-75
2023/05/23 06:35:45;;;;;;;19.92;11.55;;;;;;;;;;10378473;28;20064;-75
2023/05/23 06:40:45;;;;;;;22.83;12.03;;;;;;;;;;10378103;28;20037;-72
2023/05/23 06:45:48;;;;;;;23.10;11.63;;;;;;;;;;10378032;28;20044;-75
2023/05/23 06:50:49;;;;;;;19.63;11.52;;;;;;;;;;10377812;28;20116;-74
2023/05/23 06:55:49;;;;;;;25.27;11.33;;;;;;;;;;10377462;28;20025;-74
2023/05/23 07:00:49;;;;;;;22.87;10.83;;;;;;;;;;10359331;28;20067;-74
2023/05/23 07:05:50;;;;;;;20.38;10.88;;;;;;;;;;10377250;28;20088;-74
2023/05/23 07:10:50;;;;;;;17.98;10.52;;;;;;;;;;10377200;28;20026;-73
2023/05/23 07:15:50;;;;;;;19.05;10.35;;;;;;;;;;10377160;28;20227;-72
2023/05/23 07:20:51;;;;;;;23.27;12.25;;;;;;;;;;10369621;28;20034;-74
2023/05/23 07:25:51;;;;;;;19.58;9.63;;;;;;;;;;10336355;28;20068;-73
2023/05/23 07:30:51;;;;;;;19.55;9.30;;;;;;;;;;10335829;28;20209;-73
2023/05/23 07:35:51;;;;;;;17.42;8.68;;;;;;;;;;10335996;28;20308;-74
2023/05/23 07:40:52;;;;;;;16.63;7.82;;;;;;;;;;10334945;28;20041;-74
2023/05/23 07:45:52;;;;;;;15.33;8.60;;;;;;;;;;10334685;28;20042;-76
2023/05/23 07:50:54;;;;;;;18.58;7.60;;;;;;;;;;10333673;28;20383;-73
2023/05/23 07:55:55;;;;;;;17.30;7.53;;;;;;;;;;10334144;28;20113;-72
2023/05/23 08:00:56;;;;;;;12.98;7.00;;;;;;;;;;10334097;28;20236;-73
2023/05/23 08:05:57;;;;;;;9.77;6.72;;;;;;;;;;10333674;28;20085;-74
2023/05/23 08:10:57;;;;;;;18.67;6.27;;;;;;;;;;10334246;28;20367;-73
2023/05/23 08:15:57;;;;;;;11.45;6.07;;;;;;;;;;10334158;28;20049;-72
2023/05/23 08:20:57;;;;;;;13.18;6.88;;;;;;;;;;10341664;28;20265;-72
2023/05/23 08:25:58;;;;;;;17.77;6.90;;;;;;;;;;10368007;28;20065;-78
2023/05/23 08:30:59;;;;;;;12.00;5.75;;;;;;;;;;10373309;28;20022;-72
2023/05/23 08:36:00;;;;;;;12.13;6.10;;;;;;;;;;10375315;28;20069;-73
2023/05/23 08:41:00;;;;;;;17.47;5.80;;;;;;;;;;10375028;28;20033;-76
2023/05/23 08:46:01;;;;;;;12.93;5.88;;;;;;;;;;10375662;28;20068;-78
2023/05/23 08:51:02;;;;;;;7.65;4.22;;;;;;;;;;10374076;28;20053;-71
2023/05/23 08:56:03;;;;;;;9.82;5.22;;;;;;;;;;10374259;28;20330;-72
2023/05/23 09:01:03;;;;;;;10.20;4.80;;;;;;;;;;10374369;28;20069;-72
2023/05/23 09:06:07;;;;;;;10.48;4.47;;;;;;;;;;10373207;28;20026;-73
2023/05/23 09:11:11;;;;;;;9.60;3.40;;;;;;;;;;10372829;28;20030;-75
2023/05/23 09:16:11;;;;;;;6.03;3.30;;;;;;;;;;10374052;28;20211;-72
2023/05/23 09:21:12;;;;;;;5.55;3.00;;;;;;;;;;10362912;28;20038;-72
2023/05/23 09:26:12;;;;;;;5.30;2.60;;;;;;;;;;10332129;28;20043;-74
2023/05/23 09:31:13;;;;;;;4.95;3.05;;;;;;;;;;10332479;28;20324;-73
2023/05/23 09:36:13;;;;;;;3.97;2.40;;;;;;;;;;10332619;28;20022;-72
2023/05/23 09:41:14;;;;;;;5.78;3.10;;;;;;;;;;10332854;28;20351;-73
2023/05/23 09:46:14;;;;;;;5.67;1.80;;;;;;;;;;10332243;28;20045;-73
2023/05/23 09:51:17;;;;;;;2.75;1.92;;;;;;;;;;10331924;28;20057;-72
2023/05/23 09:56:18;;;;;;;4.40;2.10;;;;;;;;;;10332304;28;20184;-72
2023/05/23 10:01:18;;;;;;;6.82;2.10;;;;;;;;;;10336675;28;20073;-73
2023/05/23 10:06:25;;;;;;;4.72;1.95;;;;;;;;;;10339055;28;20026;-73
2023/05/23 10:11:32;;;;;;;3.67;1.60;;;;;;;;;;10340357;28;20299;-72
2023/05/23 10:16:51;;;;;;;2.90;1.77;;;;;;;;;;10339340;28;20035;-73
2023/05/23 10:21:55;;;;;;;5.10;1.48;;;;;;;;;;10338620;28;20324;-73
2023/05/23 10:26:56;;;;;;;5.30;1.98;;;;;;;;;;10338968;28;20339;-73
2023/05/23 10:31:57;;;;;;;4.03;1.80;;;;;;;;;;10338426;28;20050;-73
2023/05/23 10:37:03;;;;;;;3.67;1.70;;;;;;;;;;10338662;28;20031;-73
2023/05/23 10:42:29;;;;;;;8.93;2.00;;;;;;;;;;10338661;28;20034;-75
2023/05/23 10:47:29;;;;;;;3.92;1.70;;;;;;;;;;10303910;28;20034;-74
2023/05/23 10:52:37;;;;;;;2.10;1.50;;;;;;;;;;10338261;28;20316;-75
2023/05/23 10:57:37;;;;;;;4.72;1.92;;;;;;;;;;10337815;28;20221;-74
2023/05/23 11:02:45;;;;;;;3.58;1.90;;;;;;;;;;10337760;28;20030;-74
2023/05/23 11:07:45;;;;;;;5.40;1.85;;;;;;;;;;10337255;28;20026;-74
2023/05/23 11:12:46;;;;;;;4.33;2.27;;;;;;;;;;10336846;28;20082;-74
2023/05/23 11:17:50;;;;;;;4.70;2.83;;;;;;;;;;10336997;28;20413;-74
2023/05/23 11:22:58;;;;;;;6.63;2.70;;;;;;;;;;10336631;28;20043;-74
2023/05/23 11:27:58;;;;;;;4.90;2.50;;;;;;;;;;10336466;28;20371;-73
2023/05/23 11:32:58;;;;;;;6.22;3.50;;;;;;;;;;10336992;28;20126;-74
2023/05/23 11:37:59;;;;;;;5.10;2.70;;;;;;;;;;10335836;28;20201;-74
2023/05/23 11:43:00;;;;;;;7.20;3.08;;;;;;;;;;10335612;28;20033;-75
2023/05/23 11:48:06;;;;;;;7.90;2.90;;;;;;;;;;10335577;28;20104;-74
2023/05/23 11:53:06;;;;;;;5.07;2.25;;;;;;;;;;10335560;28;20034;-74
2023/05/23 11:58:06;;;;;;;8.85;2.40;;;;;;;;;;10335427;28;20120;-75
2023/05/23 12:03:07;;;;;;;4.07;2.67;;;;;;;;;;10335323;28;20347;-74
2023/05/23 12:08:09;;;;;;;5.55;2.70;;;;;;;;;;10336381;28;20053;-74
2023/05/23 12:13:10;;;;;;;6.72;3.10;;;;;;;;;;10334834;28;20309;-74
2023/05/23 12:18:10;;;;;;;10.15;3.15;;;;;;;;;;10334736;28;20026;-73
2023/05/23 12:23:17;;;;;;;6.57;2.72;;;;;;;;;;10333849;28;20097;-74
2023/05/23 12:28:17;;;;;;;5.97;3.08;;;;;;;;;;10333384;28;20290;-74
2023/05/23 12:33:18;;;;;;;3.93;2.30;;;;;;;;;;10336028;28;20371;-74
2023/05/23 12:38:18;;;;;;;8.38;2.50;;;;;;;;;;10333940;28;20289;-74
2023/05/23 12:43:18;;;;;;;3.00;2.23;;;;;;;;;;10334758;28;20033;-74
2023/05/23 12:48:19;;;;;;;5.55;2.83;;;;;;;;;;10333847;28;20261;-74
2023/05/23 12:53:19;;;;;;;6.07;2.95;;;;;;;;;;10334472;28;20213;-73
2023/05/23 12:58:19;;;;;;;5.53;3.10;;;;;;;;;;10333797;28;20061;-74
2023/05/23 13:03:20;;;;;;;4.15;2.72;;;;;;;;;;10333073;28;20069;-73
2023/05/23 13:08:20;;;;;;;6.40;3.10;;;;;;;;;;10332899;28;20110;-74
2023/05/23 13:13:21;;;;;;;10.30;2.97;;;;;;;;;;10332817;28;20065;-74
2023/05/23 13:18:22;;;;;;;7.72;2.80;;;;;;;;;;10332829;28;20228;-72
2023/05/23 13:23:24;;;;;;;8.15;2.97;;;;;;;;;;10332523;28;20050;-73
2023/05/23 13:28:24;;;;;;;8.93;3.17;;;;;;;;;;10332055;28;20034;-75
2023/05/23 13:33:25;;;;;;;7.20;3.33;;;;;;;;;;10333794;28;20062;-72
2023/05/23 13:38:26;;;;;;;7.05;3.00;;;;;;;;;;10340899;28;20027;-73
2023/05/23 13:43:26;;;;;;;11.43;3.35;;;;;;;;;;10340341;28;20336;-74
2023/05/23 13:48:26;;;;;;;7.90;3.17;;;;;;;;;;10340366;28;20046;-73
2023/05/23 13:53:27;;;;;;;4.07;2.72;;;;;;;;;;10340391;28;20256;-74
2023/05/23 13:58:27;;;;;;;3.85;2.47;;;;;;;;;;10340029;28;20037;-73
2023/05/23 14:03:27;;;;;;;4.77;2.80;;;;;;;;;;10339549;28;20096;-73
2023/05/23 14:08:28;;;;;;;4.63;2.53;;;;;;;;;;10339700;28;20340;-73
2023/05/23 14:13:28;;;;;;;6.05;3.20;;;;;;;;;;10338836;28;20336;-73
2023/05/23 14:18:28;;;;;;;6.45;3.22;;;;;;;;;;10338725;28;20026;-73
2023/05/23 14:23:28;;;;;;;7.05;2.78;;;;;;;;;;10338918;28;20055;-73
2023/05/23 14:28:29;;;;;;;6.95;3.60;;;;;;;;;;10338435;28;20212;-74
2023/05/23 14:33:29;;;;;;;7.78;2.95;;;;;;;;;;10336751;28;20436;-73
2023/05/23 14:38:30;;;;;;;9.40;4.43;;;;;;;;;;10338156;28;20109;-74
2023/05/23 14:43:30;;;;;;;4.90;2.77;;;;;;;;;;10338573;28;20404;-73
2023/05/23 14:48:31;;;;;;;10.88;4.47;;;;;;;;;;10334161;28;20062;-72
2023/05/23 14:53:31;;;;;;;4.68;3.20;;;;;;;;;;10304374;28;20312;-73
2023/05/23 14:58:31;;;;;;;6.45;3.28;;;;;;;;;;10337282;28;20327;-73
2023/05/23 15:03:32;;;;;;;4.83;2.93;;;;;;;;;;10337325;28;20061;-73
2023/05/23 15:08:32;;;;;;;10.75;3.63;;;;;;;;;;10336714;28;20022;-73
2023/05/23 15:13:33;;;;;;;9.68;3.53;;;;;;;;;;10337471;28;20102;-73
2023/05/23 15:18:33;;;;;;;6.32;3.53;;;;;;;;;;10337065;28;20034;-73
2023/05/23 15:23:33;;;;;;;4.40;2.72;;;;;;;;;;10336256;28;20050;-73
2023/05/23 15:28:33;;;;;;;5.82;2.92;;;;;;;;;;10335183;28;20391;-73
2023/05/23 15:33:34;;;;;;;4.97;2.65;;;;;;;;;;10336952;28;20038;-73
2023/05/23 15:38:34;;;;;;;6.60;3.35;;;;;;;;;;10335942;28;20042;-73
2023/05/23 15:43:35;;;;;;;4.88;2.95;;;;;;;;;;10327569;28;20315;-73
2023/05/23 15:48:35;;;;;;;6.33;3.23;;;;;;;;;;10335848;28;20045;-73
2023/05/23 15:53:35;;;;;;;6.15;3.58;;;;;;;;;;10336471;28;20034;-73
2023/05/23 15:58:35;;;;;;;8.15;3.25;;;;;;;;;;10335838;28;20045;-73
2023/05/23 16:03:36;;;;;;;7.50;3.03;;;;;;;;;;10334478;28;20064;-72
2023/05/23 16:08:36;;;;;;;12.73;3.08;;;;;;;;;;10332636;28;20042;-72
2023/05/23 16:13:36;;;;;;;6.03;2.80;;;;;;;;;;10334804;28;20022;-73
2023/05/23 16:18:37;;;;;;;7.18;3.17;;;;;;;;;;10331490;28;20046;-73
2023/05/23 16:23:37;;;;;;;10.30;3.50;;;;;;;;;;10332248;28;20319;-73
2023/05/23 16:28:37;;;;;;;10.68;3.22;;;;;;;;;;10331438;28;20038;-73
2023/05/23 16:33:37;;;;;;;6.32;3.90;;;;;;;;;;10333797;28;20041;-72
2023/05/23 16:38:38;;;;;;;6.90;2.95;;;;;;;;;;10333582;28;20018;-73
2023/05/23 16:43:38;;;;;;;6.82;3.47;;;;;;;;;;10333811;28;20069;-73
2023/05/23 16:48:38;;;;;;;7.07;3.58;;;;;;;;;;10333539;28;20026;-69
2023/05/23 16:53:38;;;;;;;7.05;3.13;;;;;;;;;;10333954;28;20026;-74
2023/05/23 16:58:39;;;;;;;5.75;3.65;;;;;;;;;;10334341;28;20053;-74
2023/05/23 17:03:40;;;;;;;9.65;4.35;;;;;;;;;;10333111;28;20058;-75
2023/05/23 17:08:40;;;;;;;5.70;3.22;;;;;;;;;;10333532;28;20053;-82
2023/05/23 17:13:41;;;;;;;9.10;3.65;;;;;;;;;;10298650;28;20104;-76
2023/05/23 17:18:41;;;;;;;15.88;4.97;;;;;;;;;;10330603;28;20248;-72
2023/05/23 17:23:42;;;;;;;10.65;4.13;;;;;;;;;;10326925;28;20501;-76
2023/05/23 17:28:42;;;;;;;10.60;4.32;;;;;;;;;;10327844;28;20046;-75
2023/05/23 17:33:43;;;;;;;7.83;3.60;;;;;;;;;;10328672;28;20038;-78
2023/05/23 17:38:43;;;;;;;11.30;4.65;;;;;;;;;;10329423;28;20248;-75
2023/05/23 17:43:43;;;;;;;7.93;4.00;;;;;;;;;;10314149;28;20097;-73
2023/05/23 17:48:44;;;;;;;9.97;5.10;;;;;;;;;;10329934;28;20030;-74
2023/05/23 17:53:44;;;;;;;11.13;4.37;;;;;;;;;;10331221;28;20037;-73
2023/05/23 17:58:44;;;;;;;9.68;3.65;;;;;;;;;;10325592;28;20027;-72
2023/05/23 18:03:45;;;;;;;9.03;3.63;;;;;;;;;;10330699;28;20041;-72
2023/05/23 18:08:45;;;;;;;8.60;4.05;;;;;;;;;;10326252;28;20050;-73
2023/05/23 18:13:47;;;;;;;11.15;3.55;;;;;;;;;;10320750;28;20089;-73
2023/05/23 18:18:47;;;;;;;8.77;4.15;;;;;;;;;;10321748;28;20073;-72
2023/05/23 18:23:47;;;;;;;7.30;4.00;;;;;;;;;;10325891;28;20046;-73
2023/05/23 18:28:47;;;;;;;10.63;4.93;;;;;;;;;;10327891;28;20081;-72
2023/05/23 18:33:48;;;;;;;9.48;3.45;;;;;;;;;;10326667;28;20033;-72
2023/05/23 18:38:48;;;;;;;6.45;3.83;;;;;;;;;;10323182;28;20038;-73
2023/05/23 18:43:48;;;;;;;9.35;6.15;;;;;;;;;;10335518;28;20030;-72
2023/05/23 18:48:49;;;;;;;11.60;6.13;;;;;;;;;;10331420;28;20271;-72
2023/05/23 18:53:50;;;;;;;12.52;4.60;;;;;;;;;;10324646;28;20458;-73
2023/05/23 18:58:50;;;;;;;10.50;4.32;;;;;;;;;;10320335;28;20041;-72
2023/05/23 19:03:51;;;;;;;14.50;5.43;;;;;;;;;;10335663;28;20215;-73
2023/05/23 19:08:51;;;;;;;17.00;5.40;;;;;;;;;;10337917;28;20091;-73
2023/05/23 19:13:51;;;;;;;15.88;5.70;;;;;;;;;;10337013;28;20116;-72
2023/05/23 19:18:52;;;;;;;10.52;5.50;;;;;;;;;;10336539;28;20117;-73
2023/05/23 19:23:52;;;;;;;25.13;6.78;;;;;;;;;;10336960;28;20046;-72
2023/05/23 19:28:52;;;;;;;14.65;6.30;;;;;;;;;;10336309;28;20042;-73
2023/05/23 19:33:53;;;;;;;13.90;4.67;;;;;;;;;;10336135;28;20045;-72
2023/05/23 19:38:53;;;;;;;10.57;5.10;;;;;;;;;;10336137;28;20038;-73
2023/05/23 19:43:53;;;;;;;21.73;9.30;;;;;;;;;;10335730;28;20288;-73
2023/05/23 19:48:56;;;;;;;14.60;5.88;;;;;;;;;;10332322;28;20030;-73
2023/05/23 19:53:56;;;;;;;18.20;7.35;;;;;;;;;;10336346;28;20033;-72
2023/05/23 19:58:59;;;;;;;15.60;7.27;;;;;;;;;;10329415;28;20202;-74
2023/05/23 20:04:00;;;;;;;16.58;6.75;;;;;;;;;;10335014;28;20042;-73
2023/05/23 20:09:00;;;;;;;23.85;7.10;;;;;;;;;;10335005;28;20069;-73
2023/05/23 20:14:01;;;;;;;18.40;6.28;;;;;;;;;;10335423;28;20077;-73
2023/05/23 20:19:01;;;;;;;19.90;7.47;;;;;;;;;;10334052;28;20328;-73
2023/05/23 20:24:01;;;;;;;21.00;7.20;;;;;;;;;;10334363;28;20342;-74
2023/05/23 20:29:02;;;;;;;11.73;5.70;;;;;;;;;;10334564;28;20046;-74
2023/05/23 20:34:02;;;;;;;13.10;6.88;;;;;;;;;;10333714;28;20030;-72
2023/05/23 20:39:02;;;;;;;14.53;6.73;;;;;;;;;;10333684;28;20038;-73
2023/05/23 20:44:03;;;;;;;25.42;6.50;;;;;;;;;;10316175;28;20061;-73
2023/05/23 20:49:03;;;;;;;12.88;6.10;;;;;;;;;;10332338;28;20336;-73
2023/05/23 20:54:04;;;;;;;12.35;5.50;;;;;;;;;;10333504;28;20386;-73
2023/05/23 20:59:04;;;;;;;12.45;5.85;;;;;;;;;;10332909;28;20069;-73
2023/05/23 21:04:05;;;;;;;12.90;5.73;;;;;;;;;;10333607;28;20034;-73
2023/05/23 21:09:07;;;;;;;8.35;4.95;;;;;;;;;;10332882;28;20042;-73
2023/05/23 21:14:07;;;;;;;11.40;5.57;;;;;;;;;;10334003;28;20073;-73
2023/05/23 21:19:08;;;;;;;8.98;5.05;;;;;;;;;;10332279;28;20030;-74
2023/05/23 21:24:08;;;;;;;11.75;5.63;;;;;;;;;;10332521;28;20061;-73
2023/05/23 21:29:08;;;;;;;12.00;5.93;;;;;;;;;;10332080;28;20038;-73
2023/05/23 21:34:08;;;;;;;9.07;5.00;;;;;;;;;;10332581;28;20046;-74
2023/05/23 21:39:09;;;;;;;8.40;4.20;;;;;;;;;;10332949;28;20034;-74
2023/05/23 21:44:09;;;;;;;13.23;5.78;;;;;;;;;;10332163;28;20030;-74
2023/05/23 21:49:09;;;;;;;7.73;4.33;;;;;;;;;;10331974;28;20399;-73
2023/05/23 21:54:10;;;;;;;5.97;4.27;;;;;;;;;;10332888;28;20038;-72
2023/05/23 21:59:10;;;;;;;8.27;4.63;;;;;;;;;;10339707;28;20371;-73
2023/05/23 22:04:10;;;;;;;7.75;4.13;;;;;;;;;;10339804;28;20026;-74
2023/05/23 22:09:10;;;;;;;6.95;4.53;;;;;;;;;;10339860;28;20096;-73
2023/05/23 22:14:11;;;;;;;10.10;4.77;;;;;;;;;;10339207;28;20437;-73
2023/05/23 22:19:11;;;;;;;8.57;4.40;;;;;;;;;;10339159;28;20026;-73
2023/05/23 22:24:11;;;;;;;9.32;4.80;;;;;;;;;;10338931;28;20263;-73
2023/05/23 22:29:12;;;;;;;6.53;4.55;;;;;;;;;;10338623;28;20223;-73
2023/05/23 22:34:12;;;;;;;7.53;5.20;;;;;;;;;;10338836;28;20026;-74
2023/05/23 22:39:12;;;;;;;10.95;5.90;;;;;;;;;;10338432;28;20038;-74
2023/05/23 22:44:13;;;;;;;11.50;5.45;;;;;;;;;;10338633;28;20038;-73
2023/05/23 22:49:14;;;;;;;12.23;5.15;;;;;;;;;;10338198;28;20048;-73
2023/05/23 22:54:14;;;;;;;9.63;5.03;;;;;;;;;;10341463;28;20308;-74
2023/05/23 22:59:14;;;;;;;8.60;5.40;;;;;;;;;;10337684;28;20286;-74
2023/05/23 23:04:15;;;;;;;19.00;5.90;;;;;;;;;;10337385;28;20338;-74
2023/05/23 23:09:16;;;;;;;10.40;5.53;;;;;;;;;;10336831;28;20081;-74
2023/05/23 23:14:16;;;;;;;12.30;6.32;;;;;;;;;;10337247;28;20034;-74
2023/05/23 23:19:16;;;;;;;13.10;6.53;;;;;;;;;;10337235;28;20030;-74
2023/05/23 23:24:17;;;;;;;9.00;5.60;;;;;;;;;;10336617;28;20050;-73
2023/05/23 23:29:17;;;;;;;15.47;6.60;;;;;;;;;;10337328;28;20038;-73
2023/05/23 23:34:17;;;;;;;9.77;5.95;;;;;;;;;;10335164;28;20026;-74
2023/05/23 23:39:18;;;;;;;11.93;6.63;;;;;;;;;;10335889;28;20030;-73
2023/05/23 23:44:18;;;;;;;12.90;6.63;;;;;;;;;;10337004;28;20264;-73
2023/05/23 23:49:18;;;;;;;9.45;6.00;;;;;;;;;;10335395;28;20089;-73
2023/05/23 23:54:18;;;;;;;12.75;7.15;;;;;;;;;;10335746;28;20247;-73
2023/05/23 23:59:19;;;;;;;15.75;7.68;;;;;;;;;;10335066;28;20034;-73
